Rickenbacker, OH

10:30 AM EST on December 17, 2017 (GMT -0500)
Rickenbacker International

Weather History for KLCK - March, 2014

Change the Weather History Date:

Wednesday, March 19, 2014

  Actual Average Record
Temperature  
Mean Temperature 48 °F -  
Max Temperature 55 °F 50 °F 78 °F (2012)
Min Temperature 42 °F 31 °F 23 °F (2006)
Degree Days  
Heating Degree Days 16    
Moisture  
Dew Point 40 °F    
Average Humidity 72    
Maximum Humidity 85    
Minimum Humidity 61    
Precipitation  
Precipitation 0.00 in - - ()
Sea Level Pressure  
Sea Level Pressure 29.84 in    
Wind  
Wind Speed 13 mph (SSW)    
Max Wind Speed 29 mph    
Max Gust Speed 40 mph    
Visibility 9 miles    
Events Rain , Thunderstorm    
Averages and records for this station are not official NWS values.
T = Trace of Precipitation, MM = Missing Value Source: NWS Daily Summary

Daily Weather History Graph

Daily Weather History Graph

Search for Another Location

Airport or City:

Trip Planner

Search our weather history database for the weather conditions in past years. The results will help you decide how hot, cold, wet, or windy it might be!

Date:

Astronomy

Mar. 19, 2014 Rise Set
Actual Time 7:36 AM EDT 7:42 PM EDT
Civil Twilight 7:09 AM EDT 8:09 PM EDT
Nautical Twilight 6:38 AM EDT 8:41 PM EDT
Astronomical Twilight 6:06 AM EDT 9:13 PM EDT
Moon 10:59 PM EDT (3/19) 9:02 AM EDT (3/19)
Length of Visible Light 12h 59m
Length of Day
12h 05m
Waning Gibbous, 91% of the Moon is Illuminated
Mar 19
Waning Gibbous
Mar 23
Last Quarter
Mar 30
New
Apr 7
First Quarter
Apr 15
Full

Hourly Weather History & Observations

Time (EDT) Temp. Windchill Dew Point Humidity Pressure Visibility Wind Dir Wind Speed Gust Speed Precip Events Conditions
12:15 AM 47.3 °F - 35.2 °F 63% 29.86 in 10.0 mi SE 11.5 mph - N/A   Clear
12:35 AM 47.3 °F - 35.4 °F 63% 29.86 in 10.0 mi SE 10.4 mph - N/A   Clear
12:55 AM 47.1 °F - 35.2 °F 63% 29.85 in 10.0 mi SE 11.5 mph - N/A   Clear
1:15 AM 47.1 °F - 35.2 °F 63% 29.85 in 10.0 mi SE 10.4 mph - N/A   Clear
1:35 AM 46.0 °F 41.4 °F 35.1 °F 66% 29.85 in 10.0 mi SE 9.2 mph - N/A   Clear
1:55 AM 45.3 °F 41.6 °F 34.9 °F 67% 29.86 in 10.0 mi SE 6.9 mph - N/A   Clear
2:15 AM 45.3 °F 41.6 °F 34.9 °F 67% 29.86 in 10.0 mi SSE 6.9 mph - N/A   Clear
2:35 AM 45.3 °F 41.1 °F 35.1 °F 67% 29.86 in 10.0 mi SSE 8.1 mph - N/A   Clear
2:55 AM 45.9 °F 40.4 °F 35.6 °F 67% 29.86 in 10.0 mi SSE 11.5 mph - N/A   Clear
3:15 AM 46.2 °F 40.1 °F 35.6 °F 66% 29.85 in 10.0 mi SSE 13.8 mph - N/A   Clear
3:35 AM 45.9 °F 40.8 °F 35.6 °F 67% 29.85 in 10.0 mi SSE 10.4 mph - N/A   Clear
3:55 AM 45.0 °F 40.1 °F 35.6 °F 70% 29.85 in 10.0 mi South 9.2 mph - N/A   Scattered Clouds
4:15 AM 46.0 °F 41.0 °F 36.3 °F 69% 29.85 in 10.0 mi South 10.4 mph - N/A   Overcast
4:35 AM 46.6 °F - 36.5 °F 68% 29.85 in 10.0 mi South 13.8 mph 19.6 mph N/A   Overcast
4:55 AM 47.3 °F - 36.7 °F 67% 29.86 in 10.0 mi South 12.7 mph 17.3 mph N/A   Overcast
5:15 AM 47.3 °F - 36.9 °F 67% 29.87 in 10.0 mi South 9.2 mph 18.4 mph N/A   Overcast
5:35 AM 47.3 °F - 37.0 °F 68% 29.87 in 10.0 mi South 9.2 mph - N/A   Overcast
5:55 AM 47.3 °F - 37.4 °F 68% 29.86 in 10.0 mi South 10.4 mph - N/A   Overcast
6:15 AM 47.3 °F - 37.4 °F 68% 29.86 in 10.0 mi South 10.4 mph - N/A   Overcast
6:35 AM 47.3 °F - 37.6 °F 69% 29.86 in 10.0 mi South 10.4 mph - N/A   Overcast
6:55 AM 47.3 °F - 37.8 °F 69% 29.87 in 10.0 mi South 8.1 mph - N/A   Overcast
7:15 AM 47.5 °F - 38.1 °F 70% 29.86 in 10.0 mi South 9.2 mph - N/A   Overcast
7:35 AM 47.5 °F - 38.3 °F 70% 29.86 in 10.0 mi South 9.2 mph - N/A   Overcast
7:55 AM 47.5 °F - 38.7 °F 71% 29.86 in 10.0 mi SSE 8.1 mph - N/A   Overcast
8:15 AM 47.8 °F - 38.8 °F 71% 29.85 in 10.0 mi South 8.1 mph - N/A   Overcast
8:35 AM 48.4 °F - 39.2 °F 71% 29.85 in 10.0 mi South 8.1 mph - N/A   Overcast
8:55 AM 48.9 °F - 39.4 °F 70% 29.85 in 10.0 mi South 10.4 mph - N/A   Overcast
9:15 AM 49.5 °F - 39.7 °F 69% 29.85 in 10.0 mi South 9.2 mph - N/A   Overcast
9:35 AM 49.3 °F - 40.1 °F 71% 29.86 in 10.0 mi South 13.8 mph - N/A Rain Light Rain
9:55 AM 48.6 °F - 41.0 °F 75% 29.86 in 7.0 mi South 10.4 mph - N/A Rain Rain
10:15 AM 47.8 °F - 41.7 °F 79% 29.84 in 3.0 mi South 13.8 mph - N/A Rain Light Rain
10:35 AM 48.0 °F - 42.4 °F 81% 29.83 in 4.0 mi South 13.8 mph 20.7 mph N/A Rain Light Rain
10:55 AM 48.0 °F - 42.8 °F 82% 29.83 in 5.0 mi South 15.0 mph 20.7 mph N/A Rain Rain
11:15 AM 47.7 °F - 43.0 °F 84% 29.81 in 5.0 mi South 15.0 mph 21.9 mph N/A Rain Rain
11:35 AM 48.2 °F - 43.0 °F 82% 29.83 in 4.0 mi South 16.1 mph 19.6 mph N/A Rain Heavy Rain
11:55 AM 48.2 °F - 43.2 °F 83% 29.80 in 7.0 mi South 16.1 mph - N/A Rain Rain
12:15 PM 48.2 °F - 43.7 °F 84% 29.80 in 4.0 mi South 13.8 mph - N/A Rain Rain
12:35 PM 48.4 °F - 44.1 °F 85% 29.79 in 5.0 mi South 12.7 mph - N/A Rain Light Rain
12:55 PM 49.1 °F - 44.6 °F 84% 29.79 in 10.0 mi South 13.8 mph - N/A   Light Drizzle
1:15 PM 49.5 °F - 44.4 °F 83% 29.78 in 10.0 mi South 12.7 mph - N/A   Overcast
1:35 PM 49.6 °F - 44.4 °F 82% 29.78 in 7.0 mi South 12.7 mph 18.4 mph N/A   Overcast
1:55 PM 49.8 °F - 44.2 °F 81% 29.78 in 10.0 mi South 16.1 mph 23.0 mph N/A Thunderstorm Overcast
2:15 PM 50.4 °F - 44.2 °F 80% 29.78 in 10.0 mi South 18.4 mph 24.2 mph N/A   Overcast
2:35 PM 50.9 °F - 44.6 °F 79% 29.78 in 10.0 mi SSW 16.1 mph 24.2 mph N/A   Overcast
2:55 PM 51.4 °F - 45.5 °F 80% 29.77 in 10.0 mi South 18.4 mph 25.3 mph N/A   Overcast
3:15 PM 52.3 °F - 46.0 °F 79% 29.76 in 10.0 mi South 21.9 mph 29.9 mph N/A   Overcast
3:35 PM 52.7 °F - 45.9 °F 78% 29.76 in 10.0 mi SSW 18.4 mph 27.6 mph N/A   Overcast
3:55 PM 53.2 °F - 46.6 °F 78% 29.76 in 10.0 mi South 21.9 mph 27.6 mph N/A   Overcast
4:15 PM 53.4 °F - 46.4 °F 77% 29.75 in 10.0 mi SSW 19.6 mph 27.6 mph N/A   Overcast
4:35 PM 54.0 °F - 46.8 °F 77% 29.75 in 10.0 mi SSW 20.7 mph 26.5 mph N/A   Overcast
4:55 PM 53.6 °F - 46.2 °F 76% 29.75 in 7.0 mi SW 17.3 mph 27.6 mph N/A Rain Light Rain
5:15 PM 53.2 °F - 46.8 °F 79% 29.75 in 10.0 mi SW 17.3 mph 24.2 mph N/A   Overcast
5:35 PM 54.0 °F - 46.6 °F 76% 29.75 in 10.0 mi WSW 17.3 mph 24.2 mph N/A   Mostly Cloudy
5:55 PM 55.0 °F - 46.0 °F 72% 29.76 in 10.0 mi SW 16.1 mph 21.9 mph N/A   Mostly Cloudy
6:15 PM 55.4 °F - 45.5 °F 69% 29.76 in 10.0 mi WSW 17.3 mph 26.5 mph N/A   Overcast
6:35 PM 54.7 °F - 45.5 °F 71% 29.77 in 10.0 mi WSW 12.7 mph - N/A   Overcast
6:55 PM 53.8 °F - 45.1 °F 73% 29.78 in 10.0 mi West 20.7 mph 26.5 mph N/A   Overcast
7:15 PM 53.1 °F - 42.4 °F 67% 29.79 in 10.0 mi West 20.7 mph 29.9 mph N/A   Overcast
7:35 PM 52.2 °F - 41.4 °F 67% 29.82 in 10.0 mi West 28.8 mph 40.3 mph N/A   Overcast
7:55 PM 50.2 °F - 38.8 °F 65% 29.83 in 10.0 mi West 24.2 mph 31.1 mph N/A   Overcast
8:15 PM 49.3 °F - 37.9 °F 65% 29.85 in 10.0 mi West 20.7 mph 29.9 mph N/A   Overcast
8:35 PM 48.9 °F - 37.0 °F 64% 29.86 in 10.0 mi West 17.3 mph 26.5 mph N/A   Overcast
8:55 PM 48.6 °F - 35.8 °F 61% 29.88 in 10.0 mi West 19.6 mph 25.3 mph N/A   Overcast
9:15 PM 48.4 °F - 36.3 °F 63% 29.89 in 10.0 mi West 16.1 mph 24.2 mph N/A   Overcast
9:35 PM 47.8 °F - 36.5 °F 65% 29.90 in 10.0 mi West 20.7 mph 25.3 mph N/A   Overcast
9:55 PM 46.4 °F 38.3 °F 36.1 °F 67% 29.92 in 5.0 mi West 23.0 mph 31.1 mph N/A   Haze
10:15 PM 45.3 °F 37.3 °F 35.8 °F 69% 29.93 in 7.0 mi West 20.7 mph 27.6 mph N/A   Overcast
10:35 PM 44.6 °F 35.5 °F 33.8 °F 66% 29.94 in 10.0 mi West 25.3 mph 32.2 mph N/A   Overcast
10:55 PM 44.2 °F 37.0 °F 32.4 °F 63% 29.95 in 10.0 mi WNW 16.1 mph 25.3 mph N/A   Overcast
11:15 PM 43.9 °F 36.5 °F 32.4 °F 64% 29.96 in 10.0 mi West 16.1 mph 24.2 mph N/A   Overcast
11:35 PM 42.8 °F 35.8 °F 34.2 °F 72% 29.97 in 4.0 mi West 13.8 mph 19.6 mph N/A   Light Drizzle
11:55 PM 42.1 °F 34.9 °F 34.9 °F 76% 29.96 in 4.0 mi West 13.8 mph 21.9 mph N/A   Light Drizzle